createdAt,value
2019-04-20T00:01:50.524Z,7.00
2019-04-20T00:04:24.731Z,5.20
2019-04-20T00:06:53.086Z,5.50
2019-04-20T00:09:25.727Z,5.60
2019-04-20T00:12:01.506Z,6.30
2019-04-20T00:14:26.272Z,6.00
2019-04-20T00:16:52.912Z,4.80
2019-04-20T00:19:33.658Z,8.37
2019-04-20T00:22:05.857Z,4.40
2019-04-20T00:24:51.596Z,5.87
2019-04-20T00:27:40.253Z,5.27
2019-04-20T00:30:04.375Z,4.93
2019-04-20T00:32:35.979Z,3.93
2019-04-20T00:34:50.365Z,5.27
2019-04-20T00:37:19.430Z,3.90
2019-04-20T00:39:48.865Z,3.13
2019-04-20T00:42:19.643Z,3.83
2019-04-20T00:44:56.411Z,4.47
2019-04-20T00:47:30.439Z,4.60
2019-04-20T00:50:04.051Z,3.97
2019-04-20T00:52:35.680Z,3.63
2019-04-20T00:54:51.496Z,3.57
2019-04-20T00:57:30.524Z,3.40
2019-04-20T01:00:11.067Z,3.50
2019-04-20T01:02:37.038Z,4.13
2019-04-20T01:05:12.809Z,3.30
2019-04-20T01:07:33.061Z,3.43
2019-04-20T01:10:09.253Z,2.87
2019-04-20T01:12:40.264Z,4.97
2019-04-20T01:15:12.371Z,3.17
2019-04-20T01:17:41.518Z,3.60
2019-04-20T01:20:10.393Z,2.83
2019-04-20T01:22:44.562Z,3.63
2019-04-20T01:25:17.250Z,5.40
2019-04-20T01:28:02.148Z,4.67
2019-04-20T01:30:20.764Z,4.60
2019-04-20T01:32:57.534Z,4.40
2019-04-20T01:35:30.447Z,4.03
2019-04-20T01:38:02.621Z,7.23
2019-04-20T01:40:14.742Z,4.70
2019-04-20T01:42:44.585Z,4.10
2019-04-20T01:45:19.888Z,3.60
2019-04-20T01:47:50.270Z,3.67
2019-04-20T01:50:21.009Z,2.97
2019-04-20T01:52:56.705Z,3.23
2019-04-20T01:55:39.085Z,4.53
2019-04-20T01:58:19.444Z,3.43
2019-04-20T02:00:45.985Z,3.03
2019-04-20T02:03:38.366Z,3.80
2019-04-20T02:06:12.697Z,3.20
2019-04-20T02:08:46.042Z,2.63
2019-04-20T02:11:23.075Z,2.83
2019-04-20T02:13:51.615Z,2.93
2019-04-20T02:16:27.281Z,2.80
2019-04-20T02:19:09.103Z,3.73
2019-04-20T02:21:36.384Z,3.63
2019-04-20T02:23:58.887Z,5.13
2019-04-20T02:26:23.956Z,5.30
2019-04-20T02:29:17.593Z,3.50
2019-04-20T02:32:05.034Z,4.33
2019-04-20T02:34:40.175Z,4.13
2019-04-20T02:37:21.296Z,3.50
2019-04-20T02:39:46.369Z,4.53
2019-04-20T02:47:14.031Z,4.57
2019-04-20T02:49:42.058Z,3.10
2019-04-20T02:52:12.401Z,4.37
2019-04-20T02:54:47.049Z,3.50
2019-04-20T02:57:33.344Z,4.10
2019-04-20T03:01:59.410Z,3.23
2019-04-20T03:04:25.680Z,3.10
2019-04-20T03:07:02.611Z,3.63
2019-04-20T03:09:38.539Z,5.10
2019-04-20T03:12:10.610Z,2.97
2019-04-20T03:14:33.626Z,3.50
2019-04-20T03:17:10.409Z,5.30
2019-04-20T03:19:32.826Z,3.73
2019-04-20T03:22:18.876Z,4.03
2019-04-20T03:24:46.878Z,4.50
2019-04-20T03:27:07.563Z,4.23
2019-04-20T03:29:52.557Z,3.87
2019-04-20T03:35:05.311Z,4.50
2019-04-20T03:37:34.569Z,5.37
2019-04-20T03:39:55.563Z,4.77
2019-04-20T03:42:09.331Z,4.47
2019-04-20T03:44:39.420Z,3.40
2019-04-20T03:47:12.342Z,4.57
2019-04-20T03:52:49.350Z,5.17
2019-04-20T03:55:26.242Z,4.43
2019-04-20T03:58:04.453Z,4.77
2019-04-20T04:00:35.511Z,4.10
2019-04-20T04:03:20.246Z,4.37
2019-04-20T04:05:45.860Z,5.77
2019-04-20T04:08:10.568Z,5.43
2019-04-20T04:10:47.879Z,4.07
2019-04-20T04:13:21.000Z,4.67
2019-04-20T04:15:57.553Z,5.67
2019-04-20T04:18:29.738Z,4.77
2019-04-20T04:21:03.139Z,7.17
2019-04-20T04:23:47.094Z,5.30
2019-04-20T04:26:17.145Z,8.03
2019-04-20T04:28:44.864Z,6.57
2019-04-20T04:31:17.640Z,5.77
2019-04-20T04:33:55.955Z,6.70
2019-04-20T04:36:15.316Z,7.43
2019-04-20T04:38:57.094Z,5.63
2019-04-20T04:41:25.592Z,4.40
2019-04-20T04:43:52.120Z,8.37
2019-04-20T04:46:02.065Z,4.83
2019-04-20T04:48:35.826Z,4.47
2019-04-20T04:51:11.331Z,5.63
2019-04-20T04:53:44.357Z,4.63
2019-04-20T04:56:07.384Z,5.53
2019-04-20T04:58:34.031Z,6.27
2019-04-20T05:01:11.738Z,6.57
2019-04-20T05:03:56.520Z,4.57
2019-04-20T05:06:31.724Z,6.27
2019-04-20T05:08:55.118Z,4.27
2019-04-20T05:11:23.838Z,5.87
2019-04-20T05:14:02.198Z,7.10
2019-04-20T05:16:48.121Z,4.80
2019-04-20T05:19:19.256Z,6.87
2019-04-20T05:22:08.126Z,5.13
2019-04-20T05:24:34.897Z,6.30
2019-04-20T05:27:24.681Z,5.03
2019-04-20T05:29:41.360Z,5.60
2019-04-20T05:32:19.915Z,5.90
2019-04-20T05:35:10.934Z,4.47
2019-04-20T05:37:45.776Z,5.53
2019-04-20T05:40:13.275Z,5.13
2019-04-20T05:42:41.111Z,5.70
2019-04-20T05:45:08.624Z,6.77
2019-04-20T05:47:38.726Z,6.47
2019-04-20T05:50:01.022Z,4.63
2019-04-20T05:55:20.767Z,5.90
2019-04-20T05:58:02.074Z,4.77
2019-04-20T06:00:34.571Z,9.23
2019-04-20T06:03:02.331Z,6.83
2019-04-20T06:05:36.432Z,7.73
2019-04-20T06:07:59.173Z,5.40
2019-04-20T06:10:31.963Z,6.37
2019-04-20T06:13:00.258Z,7.83
2019-04-20T06:15:42.069Z,6.70
2019-04-20T06:18:17.802Z,6.53
2019-04-20T06:21:00.823Z,8.27
2019-04-20T06:23:33.825Z,7.27
2019-04-20T06:26:12.823Z,5.43
2019-04-20T06:28:28.033Z,5.17
2019-04-20T06:32:33.846Z,7.28
2019-04-20T06:34:25.897Z,6.93
2019-04-20T06:36:57.279Z,5.43
2019-04-20T06:39:20.390Z,5.53
2019-04-20T06:42:07.186Z,7.43
2019-04-20T06:44:26.722Z,5.57
2019-04-20T06:46:53.234Z,6.07
2019-04-20T06:49:27.485Z,5.67
2019-04-20T06:51:55.013Z,4.73
2019-04-20T06:54:36.734Z,4.50
2019-04-20T06:57:12.442Z,5.07
2019-04-20T07:00:14.044Z,5.70
2019-04-20T07:02:17.219Z,4.07
2019-04-20T07:04:55.468Z,4.93
2019-04-20T07:07:14.385Z,4.27
2019-04-20T07:09:58.328Z,4.07
2019-04-20T07:12:12.317Z,4.63
2019-04-20T07:14:37.975Z,4.87
2019-04-20T07:20:08.354Z,4.03
2019-04-20T07:22:37.564Z,5.23
2019-04-20T07:25:11.662Z,5.07
2019-04-20T07:27:43.173Z,4.93
2019-04-20T07:30:12.392Z,4.83
2019-04-20T07:33:02.435Z,5.00
2019-04-20T07:35:19.631Z,4.10
2019-04-20T07:38:10.324Z,4.77
2019-04-20T07:40:20.387Z,4.93
2019-04-20T07:42:56.516Z,5.77
2019-04-20T07:45:30.781Z,4.17
2019-04-20T07:48:09.312Z,4.07
2019-04-20T07:50:24.080Z,6.77
2019-04-20T07:52:51.638Z,4.20
2019-04-20T07:55:40.865Z,5.13
2019-04-20T07:57:53.818Z,5.90
2019-04-20T08:00:46.676Z,4.37
2019-04-20T08:03:28.118Z,6.77
2019-04-20T08:05:52.703Z,6.03
2019-04-20T08:08:30.742Z,4.83
2019-04-20T08:11:02.658Z,4.20
2019-04-20T08:13:39.165Z,8.50
2019-04-20T08:18:49.964Z,5.03
2019-04-20T08:21:06.449Z,5.57
2019-04-20T08:23:33.714Z,5.07
2019-04-20T08:26:09.035Z,4.77
2019-04-20T08:28:36.289Z,4.07
2019-04-20T08:31:39.017Z,4.33
2019-04-20T08:34:18.566Z,4.30
2019-04-20T08:36:47.797Z,6.27
2019-04-20T08:39:29.976Z,4.93
2019-04-20T08:41:53.488Z,4.87
2019-04-20T08:44:42.897Z,6.73
2019-04-20T08:47:01.265Z,5.73
2019-04-20T08:49:26.311Z,4.80
2019-04-20T08:51:58.860Z,4.83
2019-04-20T08:54:16.982Z,6.77
2019-04-20T08:56:39.001Z,4.60
2019-04-20T08:59:01.847Z,5.70
2019-04-20T09:01:34.155Z,6.00
2019-04-20T09:04:24.120Z,5.20
2019-04-20T09:06:49.078Z,5.30
2019-04-20T09:09:44.585Z,5.73
2019-04-20T09:12:06.439Z,6.23
2019-04-20T09:14:20.880Z,4.43
2019-04-20T09:16:59.168Z,5.30
2019-04-20T09:19:29.944Z,6.53
2019-04-20T09:22:06.389Z,5.73
2019-04-20T09:24:44.640Z,4.37
2019-04-20T09:27:08.886Z,8.50
2019-04-20T09:29:37.172Z,5.03
2019-04-20T09:32:23.208Z,6.50
2019-04-20T09:35:00.028Z,6.03
2019-04-20T09:37:41.267Z,4.90
2019-04-20T09:40:21.191Z,5.73
2019-04-20T09:42:38.826Z,5.53
2019-04-20T09:45:19.840Z,5.17
2019-04-20T09:47:44.978Z,6.73
2019-04-20T09:50:27.874Z,5.17
2019-04-20T09:52:59.270Z,5.40
2019-04-20T09:55:24.677Z,6.47
2019-04-20T09:57:59.057Z,6.87
2019-04-20T10:00:29.099Z,5.50
2019-04-20T10:02:44.780Z,9.70
2019-04-20T10:05:13.672Z,6.50
2019-04-20T10:07:43.864Z,5.93
2019-04-20T10:10:21.418Z,5.23
2019-04-20T10:12:43.926Z,7.90
2019-04-20T10:15:19.016Z,6.60
2019-04-20T10:17:44.124Z,9.60
2019-04-20T10:20:20.859Z,5.93
2019-04-20T10:22:44.714Z,6.40
2019-04-20T10:25:14.972Z,7.07
2019-04-20T10:27:45.349Z,5.70
2019-04-20T10:30:14.887Z,6.93
2019-04-20T10:32:47.181Z,5.70
2019-04-20T10:35:16.868Z,6.13
2019-04-20T10:37:53.621Z,7.37
2019-04-20T10:40:37.764Z,6.77
2019-04-20T10:42:53.193Z,5.17
2019-04-20T10:45:22.959Z,7.90
2019-04-20T10:47:52.817Z,5.17
2019-04-20T10:50:25.073Z,5.70
2019-04-20T10:52:54.171Z,6.83
2019-04-20T10:55:27.150Z,5.30
2019-04-20T10:57:57.652Z,5.07
2019-04-20T11:00:42.256Z,5.57
2019-04-20T11:03:13.438Z,5.50
2019-04-20T11:05:42.852Z,5.27
2019-04-20T11:08:12.808Z,5.03
2019-04-20T11:10:56.826Z,4.50
2019-04-20T11:13:13.371Z,5.15
2019-04-20T11:15:42.323Z,4.47
2019-04-20T11:18:11.390Z,5.22
2019-04-20T11:20:41.498Z,5.53
2019-04-20T11:23:20.363Z,4.83
2019-04-20T11:25:50.505Z,4.30
2019-04-20T11:28:40.027Z,6.03
2019-04-20T11:31:21.993Z,4.87
2019-04-20T11:33:54.199Z,4.25
2019-04-20T11:36:23.377Z,4.13
2019-04-20T11:38:54.465Z,4.22
2019-04-20T11:42:09.846Z,6.12
2019-04-20T11:44:39.466Z,5.25
2019-04-20T11:47:08.576Z,3.20
2019-04-20T11:49:37.633Z,3.40
2019-04-20T11:52:07.761Z,3.35
2019-04-20T11:54:37.009Z,4.12
2019-04-20T11:57:07.076Z,4.78
2019-04-20T11:59:37.133Z,2.85
2019-04-20T12:02:10.819Z,2.60
2019-04-20T12:04:49.960Z,2.92
2019-04-20T12:07:15.014Z,4.15
2019-04-20T12:09:47.216Z,2.60
2019-04-20T12:12:27.539Z,2.95
2019-04-20T12:14:48.390Z,3.62
2019-04-20T12:17:17.710Z,2.40
2019-04-20T12:19:52.970Z,2.52
2019-04-20T12:22:24.059Z,3.75
2019-04-20T12:24:54.097Z,2.55
2019-04-20T12:27:25.046Z,2.70
2019-04-20T12:29:54.099Z,2.35
2019-04-20T12:32:28.245Z,2.67
2019-04-20T12:34:54.519Z,4.25
2019-04-20T12:37:24.984Z,2.60
2019-04-20T12:39:55.333Z,3.50
2019-04-20T12:42:25.311Z,3.30
2019-04-20T12:44:55.643Z,2.47
2019-04-20T12:47:25.916Z,2.80
2019-04-20T12:49:56.301Z,3.33
2019-04-20T12:52:26.275Z,2.77
2019-04-20T12:54:58.317Z,2.60
2019-04-20T12:57:26.827Z,3.10
2019-04-20T12:59:57.185Z,3.65
2019-04-20T13:02:27.263Z,4.10
2019-04-20T13:04:57.454Z,2.95
2019-04-20T13:07:27.226Z,2.40
2019-04-20T13:09:56.909Z,2.47
2019-04-20T13:12:30.295Z,3.05
2019-04-20T13:15:30.281Z,2.80
2019-04-20T13:18:01.217Z,2.85
2019-04-20T13:20:30.464Z,2.33
2019-04-20T13:23:00.933Z,2.80
2019-04-20T13:25:30.838Z,4.20
2019-04-20T13:28:01.052Z,2.83
2019-04-20T13:30:30.282Z,2.98
2019-04-20T13:32:59.465Z,3.47
2019-04-20T13:35:28.381Z,4.45
2019-04-20T13:37:58.193Z,3.33
2019-04-20T13:40:27.990Z,4.22
2019-04-20T13:42:57.144Z,4.37
2019-04-20T13:45:26.689Z,3.10
2019-04-20T13:47:57.080Z,3.85
2019-04-20T13:50:26.360Z,3.87
2019-04-20T13:52:56.506Z,4.92
2019-04-20T13:55:27.285Z,3.65
2019-04-20T13:57:58.009Z,3.00
2019-04-20T14:00:50.954Z,2.92
2019-04-20T14:03:22.776Z,2.55
2019-04-20T14:05:52.968Z,2.67
2019-04-20T14:08:25.299Z,3.25
2019-04-20T14:10:55.650Z,2.70
2019-04-20T14:13:29.303Z,3.42
2019-04-20T14:15:55.503Z,5.10
2019-04-20T14:18:25.049Z,2.85
2019-04-20T14:20:54.316Z,3.50
2019-04-20T14:23:23.334Z,6.05
2019-04-20T14:25:52.358Z,5.25
2019-04-20T14:28:21.353Z,3.98
2019-04-20T14:30:50.342Z,3.62
2019-04-20T14:33:19.349Z,3.70
2019-04-20T14:35:48.477Z,3.52
2019-04-20T14:38:17.676Z,5.17
2019-04-20T14:40:48.290Z,3.75
2019-04-20T14:43:17.500Z,3.42
2019-04-20T14:45:47.147Z,3.47
2019-04-20T14:48:16.386Z,3.70
2019-04-20T14:50:45.764Z,3.77
2019-04-20T14:53:15.717Z,4.00
2019-04-20T14:55:44.893Z,3.25
2019-04-20T14:58:33.335Z,2.95
2019-04-20T15:01:08.864Z,6.33
2019-04-20T15:03:40.412Z,8.20
2019-04-20T15:06:11.811Z,12.50
2019-04-20T15:08:54.729Z,4.17
2019-04-20T15:11:28.283Z,5.10
2019-04-20T15:16:54.133Z,2.80
2019-04-20T15:19:47.622Z,3.72
2019-04-20T15:22:35.943Z,11.18
2019-04-20T15:25:07.628Z,4.80
2019-04-20T15:27:37.369Z,3.90
2019-04-20T15:30:08.624Z,3.02
2019-04-20T15:32:39.040Z,5.05
2019-04-20T15:35:09.026Z,4.12
2019-04-20T15:37:39.384Z,5.03
2019-04-20T15:40:08.955Z,16.70
2019-04-20T15:42:49.602Z,14.10
2019-04-20T15:45:09.404Z,62.15
2019-04-20T15:47:40.285Z,99.07
2019-04-20T15:50:09.737Z,105.70
2019-04-20T15:52:43.222Z,176.50
2019-04-20T15:55:19.659Z,185.22
2019-04-20T15:57:40.696Z,15.32
2019-04-20T16:00:10.904Z,63.80
2019-04-20T16:02:43.221Z,7.97
2019-04-20T16:05:14.447Z,123.33
2019-04-20T16:07:48.557Z,26.95
2019-04-20T16:10:14.994Z,22.93
2019-04-20T16:12:44.910Z,14.27
2019-04-20T16:15:14.146Z,83.75
2019-04-20T16:17:47.121Z,79.40
2019-04-20T16:20:19.725Z,22.35
2019-04-20T16:22:44.905Z,34.93
2019-04-20T16:25:15.461Z,21.57
2019-04-20T16:27:50.078Z,8.00
2019-04-20T16:30:18.155Z,64.77
2019-04-20T16:32:48.167Z,10.97
2019-04-20T16:35:18.250Z,21.57
2019-04-20T16:37:48.515Z,23.67
2019-04-20T16:40:17.814Z,18.60
2019-04-20T16:42:47.973Z,3.57
2019-04-20T16:45:17.237Z,6.53
2019-04-20T16:47:58.875Z,4.73
2019-04-20T16:50:22.707Z,8.05
2019-04-20T16:52:52.702Z,8.23
2019-04-20T16:55:22.930Z,4.70
2019-04-20T16:57:53.013Z,14.43
2019-04-20T17:00:23.216Z,4.90
2019-04-20T17:02:54.330Z,13.13
2019-04-20T17:05:25.112Z,5.87
2019-04-20T17:07:57.262Z,5.40
2019-04-20T17:10:26.602Z,4.20
2019-04-20T17:12:55.777Z,7.97
2019-04-20T17:15:25.563Z,3.97
2019-04-20T17:17:56.711Z,11.67
2019-04-20T17:20:27.030Z,5.33
2019-04-20T17:22:56.331Z,4.20
2019-04-20T17:25:26.156Z,7.80
2019-04-20T17:28:06.875Z,5.00
2019-04-20T17:30:47.851Z,3.47
2019-04-20T17:33:47.399Z,3.43
2019-04-20T17:36:14.462Z,3.80
2019-04-20T17:38:41.777Z,3.20
2019-04-20T17:41:29.100Z,4.70
2019-04-20T17:43:57.790Z,3.33
2019-04-20T17:46:17.554Z,4.13
2019-04-20T17:48:51.377Z,4.90
2019-04-20T17:51:37.169Z,3.87
2019-04-20T17:53:53.785Z,3.00
2019-04-20T17:56:18.214Z,6.37
2019-04-20T17:58:50.708Z,3.40
2019-04-20T18:01:55.775Z,2.77
2019-04-20T18:04:51.405Z,3.10
2019-04-20T18:06:57.919Z,3.63
2019-04-20T18:09:39.929Z,5.33
2019-04-20T18:11:52.590Z,3.30
2019-04-20T18:14:31.553Z,5.93
2019-04-20T18:17:10.446Z,3.90
2019-04-20T18:19:29.118Z,3.30
2019-04-20T18:21:58.015Z,3.63
2019-04-20T18:24:50.994Z,2.80
2019-04-20T18:27:14.168Z,4.80
2019-04-20T18:29:49.133Z,4.07
2019-04-20T18:32:19.759Z,3.73
2019-04-20T18:34:54.301Z,5.43
2019-04-20T18:37:23.383Z,3.83
2019-04-20T18:39:57.393Z,4.27
2019-04-20T18:42:29.156Z,5.33
2019-04-20T18:45:12.424Z,3.97
2019-04-20T18:47:45.286Z,5.93
2019-04-20T18:50:07.700Z,2.73
2019-04-20T18:52:27.415Z,3.67
2019-04-20T18:54:57.576Z,3.67
2019-04-20T18:57:30.720Z,4.13
2019-04-20T18:59:59.144Z,2.70
2019-04-20T19:02:33.580Z,3.93
2019-04-20T19:05:01.558Z,4.33
2019-04-20T19:07:34.870Z,4.53
2019-04-20T19:10:12.923Z,3.67
2019-04-20T19:12:41.481Z,3.80
2019-04-20T19:15:35.044Z,6.90
2019-04-20T19:17:52.304Z,4.60
2019-04-20T19:20:26.850Z,3.57
2019-04-20T19:22:55.793Z,4.73
2019-04-20T19:25:29.840Z,4.53
2019-04-20T19:27:57.552Z,6.23
2019-04-20T19:30:35.350Z,5.35
2019-04-20T19:33:14.588Z,7.23
2019-04-20T19:35:40.591Z,4.80
2019-04-20T19:38:10.514Z,3.87
2019-04-20T19:40:45.387Z,3.77
2019-04-20T19:43:15.628Z,3.97
2019-04-20T19:45:56.607Z,4.87
2019-04-20T19:48:23.039Z,3.20
2019-04-20T19:50:59.337Z,4.87
2019-04-20T19:53:45.541Z,3.10
2019-04-20T19:55:52.721Z,2.87
2019-04-20T19:58:45.630Z,5.40
2019-04-20T20:01:03.592Z,4.33
2019-04-20T20:03:35.447Z,4.97
2019-04-20T20:06:25.794Z,3.17
2019-04-20T20:08:55.798Z,4.30
2019-04-20T20:11:32.322Z,4.90
2019-04-20T20:13:59.183Z,7.27
2019-04-20T20:16:51.775Z,3.93
2019-04-20T20:19:08.507Z,4.07
2019-04-20T20:27:28.855Z,6.53
2019-04-20T20:30:10.249Z,4.57
2019-04-20T20:32:58.183Z,4.93
2019-04-20T20:35:18.711Z,4.03
2019-04-20T20:37:48.018Z,4.67
2019-04-20T20:40:24.793Z,4.50
2019-04-20T20:48:54.315Z,6.10
2019-04-20T20:51:44.250Z,5.80
2019-04-20T20:54:04.515Z,5.07
2019-04-20T20:56:30.938Z,5.97
2019-04-20T20:59:04.128Z,4.20
2019-04-20T21:01:39.211Z,3.80
2019-04-20T21:04:17.929Z,7.13
2019-04-20T21:06:51.025Z,4.07
2019-04-20T21:09:25.444Z,8.47
2019-04-20T21:12:00.605Z,5.50
2019-04-20T21:14:33.521Z,5.67
2019-04-20T21:17:02.954Z,6.90
2019-04-20T21:20:02.868Z,4.40
2019-04-20T21:25:40.776Z,5.70
2019-04-20T21:27:38.981Z,5.10
2019-04-20T21:28:04.837Z,5.40
2019-04-20T21:30:43.682Z,4.23
2019-04-20T21:33:33.914Z,3.17
2019-04-20T21:36:01.308Z,3.03
2019-04-20T21:38:35.838Z,4.40
2019-04-20T21:41:06.468Z,5.00
2019-04-20T21:44:29.422Z,5.20
2019-04-20T21:47:42.684Z,4.63
2019-04-20T21:48:51.413Z,2.90
2019-04-20T21:57:51.583Z,3.77
2019-04-20T22:07:14.413Z,6.13
2019-04-20T22:09:49.192Z,3.50
2019-04-20T22:12:15.978Z,5.53
2019-04-20T22:14:49.676Z,9.27
